sensor_id;sensor_type;location;lat;lon;timestamp;pressure;altitude;pressure_sealevel;temperature;humidity
51239;BME280;38154;47.548;18.828;2023-05-23T00:00:07;98495.81;;;13.93;100.00
51239;BME280;38154;47.548;18.828;2023-05-23T00:02:33;98496.44;;;14.06;100.00
51239;BME280;38154;47.548;18.828;2023-05-23T00:04:59;98493.91;;;14.03;100.00
51239;BME280;38154;47.548;18.828;2023-05-23T00:07:28;98492.16;;;14.02;100.00
51239;BME280;38154;47.548;18.828;2023-05-23T00:09:54;98494.69;;;14.08;100.00
51239;BME280;38154;47.548;18.828;2023-05-23T00:12:20;98491.87;;;14.19;100.00
51239;BME280;38154;47.548;18.828;2023-05-23T00:14:47;98491.16;;;14.09;100.00
51239;BME280;38154;47.548;18.828;2023-05-23T00:17:12;98488.69;;;14.01;100.00
51239;BME280;38154;47.548;18.828;2023-05-23T00:19:38;98484.34;;;13.99;100.00
51239;BME280;38154;47.548;18.828;2023-05-23T00:22:04;98481.78;;;13.96;100.00
51239;BME280;38154;47.548;18.828;2023-05-23T00:24:30;98492.25;;;13.97;100.00
51239;BME280;38154;47.548;18.828;2023-05-23T00:26:56;98493.19;;;13.95;100.00
51239;BME280;38154;47.548;18.828;2023-05-23T00:29:23;98490.63;;;13.90;100.00
51239;BME280;38154;47.548;18.828;2023-05-23T00:31:49;98490.66;;;13.87;100.00
51239;BME280;38154;47.548;18.828;2023-05-23T00:34:15;98495.97;;;13.84;100.00
51239;BME280;38154;47.548;18.828;2023-05-23T00:36:44;98492.53;;;13.79;100.00
51239;BME280;38154;47.548;18.828;2023-05-23T00:39:12;98486.50;;;13.75;100.00
51239;BME280;38154;47.548;18.828;2023-05-23T00:41:46;98493.50;;;13.75;100.00
51239;BME280;38154;47.548;18.828;2023-05-23T00:44:12;98493.53;;;13.71;100.00
51239;BME280;38154;47.548;18.828;2023-05-23T00:46:38;98496.25;;;13.65;100.00
51239;BME280;38154;47.548;18.828;2023-05-23T00:49:04;98496.22;;;13.68;100.00
51239;BME280;38154;47.548;18.828;2023-05-23T00:51:30;98499.78;;;13.64;100.00
51239;BME280;38154;47.548;18.828;2023-05-23T00:53:57;98497.19;;;13.61;100.00
51239;BME280;38154;47.548;18.828;2023-05-23T00:56:26;98491.16;;;13.58;100.00
51239;BME280;38154;47.548;18.828;2023-05-23T00:58:53;98491.19;;;13.54;100.00
51239;BME280;38154;47.548;18.828;2023-05-23T01:01:19;98485.94;;;13.54;100.00
51239;BME280;38154;47.548;18.828;2023-05-23T01:03:45;98498.22;;;13.52;100.00
51239;BME280;38154;47.548;18.828;2023-05-23T01:06:13;98491.16;;;13.58;100.00
51239;BME280;38154;47.548;18.828;2023-05-23T01:08:40;98492.03;;;13.55;100.00
51239;BME280;38154;47.548;18.828;2023-05-23T01:11:16;98490.31;;;13.54;100.00
51239;BME280;38154;47.548;18.828;2023-05-23T01:13:58;98490.31;;;13.54;100.00
51239;BME280;38154;47.548;18.828;2023-05-23T01:21:30;98488.31;;;13.71;100.00
51239;BME280;38154;47.548;18.828;2023-05-23T01:29:24;98477.16;;;13.57;100.00
51239;BME280;38154;47.548;18.828;2023-05-23T01:31:53;98488.41;;;13.64;100.00
51239;BME280;38154;47.548;18.828;2023-05-23T01:34:20;98479.75;;;13.59;100.00
51239;BME280;38154;47.548;18.828;2023-05-23T01:36:49;98481.41;;;13.66;100.00
51239;BME280;38154;47.548;18.828;2023-05-23T01:39:18;98485.75;;;13.67;100.00
51239;BME280;38154;47.548;18.828;2023-05-23T01:41:44;98473.72;;;13.55;100.00
51239;BME280;38154;47.548;18.828;2023-05-23T01:44:10;98477.31;;;13.49;100.00
51239;BME280;38154;47.548;18.828;2023-05-23T01:46:37;98470.41;;;13.42;100.00
51239;BME280;38154;47.548;18.828;2023-05-23T01:49:05;98477.47;;;13.37;100.00
51239;BME280;38154;47.548;18.828;2023-05-23T01:51:33;98473.12;;;13.36;100.00
51239;BME280;38154;47.548;18.828;2023-05-23T01:53:59;98467.91;;;13.36;100.00
51239;BME280;38154;47.548;18.828;2023-05-23T01:56:26;98467.06;;;13.34;100.00
51239;BME280;38154;47.548;18.828;2023-05-23T01:58:53;98469.69;;;13.34;100.00
51239;BME280;38154;47.548;18.828;2023-05-23T02:01:20;98466.19;;;13.32;100.00
51239;BME280;38154;47.548;18.828;2023-05-23T02:03:46;98459.22;;;13.29;100.00
51239;BME280;38154;47.548;18.828;2023-05-23T02:06:12;98463.59;;;13.29;100.00
51239;BME280;38154;47.548;18.828;2023-05-23T02:08:38;98465.41;;;13.24;100.00
51239;BME280;38154;47.548;18.828;2023-05-23T02:11:04;98448.03;;;13.18;100.00
51239;BME280;38154;47.548;18.828;2023-05-23T02:13:30;98446.31;;;13.17;100.00
51239;BME280;38154;47.548;18.828;2023-05-23T02:15:56;98449.84;;;13.14;100.00
51239;BME280;38154;47.548;18.828;2023-05-23T02:18:21;98454.28;;;13.11;100.00
51239;BME280;38154;47.548;18.828;2023-05-23T02:20:50;98458.59;;;13.12;100.00
51239;BME280;38154;47.548;18.828;2023-05-23T02:23:16;98452.50;;;13.11;100.00
51239;BME280;38154;47.548;18.828;2023-05-23T02:25:42;98463.72;;;13.20;100.00
51239;BME280;38154;47.548;18.828;2023-05-23T02:28:08;98461.94;;;13.22;100.00
51239;BME280;38154;47.548;18.828;2023-05-23T02:30:36;98448.75;;;13.32;100.00
51239;BME280;38154;47.548;18.828;2023-05-23T02:33:05;98444.34;;;13.34;100.00
51239;BME280;38154;47.548;18.828;2023-05-23T02:35:32;98447.94;;;13.27;100.00
51239;BME280;38154;47.548;18.828;2023-05-23T02:37:59;98446.97;;;13.31;100.00
51239;BME280;38154;47.548;18.828;2023-05-23T02:40:25;98438.34;;;13.25;100.00
51239;BME280;38154;47.548;18.828;2023-05-23T02:42:51;98455.06;;;13.16;100.00
51239;BME280;38154;47.548;18.828;2023-05-23T02:45:17;98453.34;;;13.13;100.00
51239;BME280;38154;47.548;18.828;2023-05-23T02:47:43;98458.53;;;13.16;100.00
51239;BME280;38154;47.548;18.828;2023-05-23T02:50:09;98449.00;;;13.12;100.00
51239;BME280;38154;47.548;18.828;2023-05-23T02:52:35;98455.13;;;13.11;100.00
51239;BME280;38154;47.548;18.828;2023-05-23T02:55:01;98449.91;;;13.10;100.00
51239;BME280;38154;47.548;18.828;2023-05-23T02:57:27;98449.09;;;13.06;100.00
51239;BME280;38154;47.548;18.828;2023-05-23T02:59:53;98449.97;;;13.04;100.00
51239;BME280;38154;47.548;18.828;2023-05-23T03:02:19;98441.28;;;13.02;100.00
51239;BME280;38154;47.548;18.828;2023-05-23T03:04:46;98442.25;;;12.97;100.00
51239;BME280;38154;47.548;18.828;2023-05-23T03:07:12;98443.06;;;12.99;100.00
51239;BME280;38154;47.548;18.828;2023-05-23T03:09:39;98443.94;;;13.00;100.00
51239;BME280;38154;47.548;18.828;2023-05-23T03:12:05;98440.47;;;12.98;100.00
51239;BME280;38154;47.548;18.828;2023-05-23T03:14:31;98442.25;;;12.96;100.00
51239;BME280;38154;47.548;18.828;2023-05-23T03:16:57;98452.69;;;12.97;100.00
51239;BME280;38154;47.548;18.828;2023-05-23T03:19:23;98444.84;;;12.97;100.00
51239;BME280;38154;47.548;18.828;2023-05-23T03:21:49;98450.03;;;13.02;100.00
51239;BME280;38154;47.548;18.828;2023-05-23T03:24:17;98448.22;;;13.06;100.00
51239;BME280;38154;47.548;18.828;2023-05-23T03:26:43;98450.84;;;13.07;100.00
51239;BME280;38154;47.548;18.828;2023-05-23T03:29:09;98450.81;;;13.09;100.00
51239;BME280;38154;47.548;18.828;2023-05-23T03:31:36;98455.13;;;13.11;100.00
51239;BME280;38154;47.548;18.828;2023-05-23T03:34:02;98446.37;;;13.14;100.00
51239;BME280;38154;47.548;18.828;2023-05-23T03:36:30;98445.50;;;13.13;100.00
51239;BME280;38154;47.548;18.828;2023-05-23T03:39:00;98445.44;;;13.18;100.00
51239;BME280;38154;47.548;18.828;2023-05-23T03:41:26;98446.25;;;13.22;100.00
51239;BME280;38154;47.548;18.828;2023-05-23T03:43:52;98440.09;;;13.26;100.00
51239;BME280;38154;47.548;18.828;2023-05-23T03:46:18;98447.03;;;13.28;100.00
51239;BME280;38154;47.548;18.828;2023-05-23T03:48:43;98435.66;;;13.32;100.00
51239;BME280;38154;47.548;18.828;2023-05-23T03:51:09;98439.88;;;13.43;100.00
51239;BME280;38154;47.548;18.828;2023-05-23T03:53:38;98437.09;;;13.50;100.00
51239;BME280;38154;47.548;18.828;2023-05-23T03:56:04;98440.50;;;13.55;100.00
51239;BME280;38154;47.548;18.828;2023-05-23T03:58:30;98445.63;;;13.63;100.00
51239;BME280;38154;47.548;18.828;2023-05-23T04:00:56;98445.53;;;13.69;100.00
51239;BME280;38154;47.548;18.828;2023-05-23T04:03:22;98448.91;;;13.78;100.00
51239;BME280;38154;47.548;18.828;2023-05-23T04:05:48;98446.91;;;13.90;100.00
51239;BME280;38154;47.548;18.828;2023-05-23T04:08:14;98450.19;;;14.03;100.00
51239;BME280;38154;47.548;18.828;2023-05-23T04:10:40;98451.59;;;14.23;100.00
51239;BME280;38154;47.548;18.828;2023-05-23T04:13:06;98445.91;;;14.44;100.00
51239;BME280;38154;47.548;18.828;2023-05-23T04:15:32;98443.00;;;14.63;100.00
51239;BME280;38154;47.548;18.828;2023-05-23T04:17:58;98439.06;;;14.82;100.00
51239;BME280;38154;47.548;18.828;2023-05-23T04:20:24;98442.09;;;15.05;100.00
51239;BME280;38154;47.548;18.828;2023-05-23T04:22:50;98443.94;;;15.40;100.00
51239;BME280;38154;47.548;18.828;2023-05-23T04:25:16;98443.53;;;15.57;100.00
51239;BME280;38154;47.548;18.828;2023-05-23T04:27:43;98445.03;;;15.67;100.00
51239;BME280;38154;47.548;18.828;2023-05-23T04:30:09;98442.06;;;15.81;100.00
51239;BME280;38154;47.548;18.828;2023-05-23T04:32:36;98447.25;;;16.17;100.00
51239;BME280;38154;47.548;18.828;2023-05-23T04:35:02;98453.03;;;16.31;100.00
51239;BME280;38154;47.548;18.828;2023-05-23T04:37:29;98453.09;;;16.28;100.00
51239;BME280;38154;47.548;18.828;2023-05-23T04:39:57;98450.47;;;16.28;100.00
51239;BME280;38154;47.548;18.828;2023-05-23T04:42:24;98455.31;;;16.44;100.00
51239;BME280;38154;47.548;18.828;2023-05-23T04:44:51;98452.78;;;16.72;100.00
51239;BME280;38154;47.548;18.828;2023-05-23T04:47:22;98455.78;;;16.91;100.00
51239;BME280;38154;47.548;18.828;2023-05-23T04:49:49;98455.16;;;17.13;100.00
51239;BME280;38154;47.548;18.828;2023-05-23T04:52:15;98451.63;;;17.40;100.00
51239;BME280;38154;47.548;18.828;2023-05-23T04:54:44;98456.66;;;17.76;100.00
51239;BME280;38154;47.548;18.828;2023-05-23T04:57:11;98453.94;;;18.05;100.00
51239;BME280;38154;47.548;18.828;2023-05-23T04:59:37;98450.19;;;18.37;100.00
51239;BME280;38154;47.548;18.828;2023-05-23T05:02:03;98457.47;;;18.79;100.00
51239;BME280;38154;47.548;18.828;2023-05-23T05:04:30;98447.91;;;19.00;100.00
51239;BME280;38154;47.548;18.828;2023-05-23T05:06:56;98444.94;;;19.32;100.00
51239;BME280;38154;47.548;18.828;2023-05-23T05:09:22;98451.72;;;19.61;100.00
51239;BME280;38154;47.548;18.828;2023-05-23T05:11:48;98460.97;;;19.93;100.00
51239;BME280;38154;47.548;18.828;2023-05-23T05:14:14;98450.22;;;20.18;98.70
51239;BME280;38154;47.548;18.828;2023-05-23T05:16:40;98455.03;;;20.29;95.03
51239;BME280;38154;47.548;18.828;2023-05-23T05:19:07;98453.97;;;20.54;98.54
51239;BME280;38154;47.548;18.828;2023-05-23T05:21:33;98457.25;;;20.59;95.17
51239;BME280;38154;47.548;18.828;2023-05-23T05:23:58;98453.81;;;20.78;90.38
51239;BME280;38154;47.548;18.828;2023-05-23T05:26:25;98468.47;;;21.05;86.41
51239;BME280;38154;47.548;18.828;2023-05-23T05:28:51;98467.66;;;21.22;86.34
51239;BME280;38154;47.548;18.828;2023-05-23T05:31:18;98462.19;;;21.44;88.85
51239;BME280;38154;47.548;18.828;2023-05-23T05:33:44;98458.91;;;21.58;84.49
51239;BME280;38154;47.548;18.828;2023-05-23T05:36:10;98459.38;;;21.66;83.81
51239;BME280;38154;47.548;18.828;2023-05-23T05:38:36;98464.66;;;21.85;79.13
51239;BME280;38154;47.548;18.828;2023-05-23T05:41:02;98460.53;;;22.15;75.38
51239;BME280;38154;47.548;18.828;2023-05-23T05:43:28;98463.66;;;22.23;76.56
51239;BME280;38154;47.548;18.828;2023-05-23T05:45:54;98463.81;;;22.55;73.02
51239;BME280;38154;47.548;18.828;2023-05-23T05:48:19;98462.19;;;22.52;74.19
51239;BME280;38154;47.548;18.828;2023-05-23T05:50:46;98460.84;;;22.26;69.78
51239;BME280;38154;47.548;18.828;2023-05-23T05:53:12;98463.66;;;22.40;71.05
51239;BME280;38154;47.548;18.828;2023-05-23T05:55:38;98461.47;;;22.82;66.88
51239;BME280;38154;47.548;18.828;2023-05-23T05:58:04;98462.44;;;23.14;65.81
51239;BME280;38154;47.548;18.828;2023-05-23T06:00:30;98456.84;;;23.19;66.03
51239;BME280;38154;47.548;18.828;2023-05-23T06:02:56;98461.56;;;23.30;66.49
51239;BME280;38154;47.548;18.828;2023-05-23T06:05:22;98463.44;;;23.60;65.11
51239;BME280;38154;47.548;18.828;2023-05-23T06:07:49;98462.41;;;23.78;62.87
51239;BME280;38154;47.548;18.828;2023-05-23T06:10:15;98463.34;;;23.77;60.38
51239;BME280;38154;47.548;18.828;2023-05-23T06:12:41;98465.59;;;23.85;62.27
51239;BME280;38154;47.548;18.828;2023-05-23T06:15:08;98463.94;;;24.43;59.59
51239;BME280;38154;47.548;18.828;2023-05-23T06:17:34;98469.84;;;25.49;55.84
51239;BME280;38154;47.548;18.828;2023-05-23T06:20:00;98461.16;;;27.04;50.37
51239;BME280;38154;47.548;18.828;2023-05-23T06:22:26;98474.78;;;29.04;44.76
51239;BME280;38154;47.548;18.828;2023-05-23T06:24:52;98472.47;;;31.05;39.47
51239;BME280;38154;47.548;18.828;2023-05-23T06:27:18;98474.97;;;31.78;36.87
51239;BME280;38154;47.548;18.828;2023-05-23T06:29:43;98477.75;;;32.84;34.76
51239;BME280;38154;47.548;18.828;2023-05-23T06:32:09;98480.78;;;33.92;33.25
51239;BME280;38154;47.548;18.828;2023-05-23T06:34:35;98476.59;;;34.33;31.41
51239;BME280;38154;47.548;18.828;2023-05-23T06:37:01;98485.75;;;34.77;31.57
51239;BME280;38154;47.548;18.828;2023-05-23T06:39:27;98478.47;;;35.97;29.34
51239;BME280;38154;47.548;18.828;2023-05-23T06:41:53;98483.25;;;36.28;29.09
51239;BME280;38154;47.548;18.828;2023-05-23T06:44:19;98484.13;;;35.69;28.51
51239;BME280;38154;47.548;18.828;2023-05-23T06:46:45;98485.69;;;35.72;28.86
51239;BME280;38154;47.548;18.828;2023-05-23T06:49:11;98481.25;;;35.20;29.38
51239;BME280;38154;47.548;18.828;2023-05-23T06:51:37;98482.47;;;34.91;29.77
51239;BME280;38154;47.548;18.828;2023-05-23T06:54:03;98473.09;;;34.85;30.05
51239;BME280;38154;47.548;18.828;2023-05-23T06:56:29;98478.66;;;35.10;31.02
51239;BME280;38154;47.548;18.828;2023-05-23T06:58:55;98482.38;;;36.11;28.50
51239;BME280;38154;47.548;18.828;2023-05-23T07:01:21;98472.91;;;36.23;28.52
51239;BME280;38154;47.548;18.828;2023-05-23T07:03:46;98481.47;;;37.09;27.09
51239;BME280;38154;47.548;18.828;2023-05-23T07:06:13;98476.31;;;37.22;26.47
51239;BME280;38154;47.548;18.828;2023-05-23T07:08:49;98470.31;;;36.21;28.23
51239;BME280;38154;47.548;18.828;2023-05-23T07:11:15;98469.63;;;35.95;29.08
51239;BME280;38154;47.548;18.828;2023-05-23T07:13:41;98460.00;;;35.41;27.79
51239;BME280;38154;47.548;18.828;2023-05-23T07:16:07;98462.84;;;35.32;28.81
51239;BME280;38154;47.548;18.828;2023-05-23T07:18:33;98460.31;;;35.30;29.23
51239;BME280;38154;47.548;18.828;2023-05-23T07:20:59;98452.69;;;34.47;31.31
51239;BME280;38154;47.548;18.828;2023-05-23T07:23:25;98461.53;;;36.28;28.03
51239;BME280;38154;47.548;18.828;2023-05-23T07:25:51;98472.16;;;36.87;27.28
51239;BME280;38154;47.548;18.828;2023-05-23T07:28:18;98470.53;;;37.17;26.44
51239;BME280;38154;47.548;18.828;2023-05-23T07:30:45;98463.31;;;36.93;27.22
51239;BME280;38154;47.548;18.828;2023-05-23T07:33:10;98465.38;;;36.91;26.42
51239;BME280;38154;47.548;18.828;2023-05-23T07:35:36;98461.84;;;37.30;26.86
51239;BME280;38154;47.548;18.828;2023-05-23T07:38:02;98459.31;;;37.68;25.58
51239;BME280;38154;47.548;18.828;2023-05-23T07:40:29;98466.25;;;37.71;25.72
51239;BME280;38154;47.548;18.828;2023-05-23T07:42:55;98475.53;;;38.31;24.41
51239;BME280;38154;47.548;18.828;2023-05-23T07:45:21;98469.66;;;38.19;24.85
51239;BME280;38154;47.548;18.828;2023-05-23T07:47:47;98475.47;;;38.16;25.69
51239;BME280;38154;47.548;18.828;2023-05-23T07:50:13;98468.19;;;37.54;25.70
51239;BME280;38154;47.548;18.828;2023-05-23T07:52:39;98466.81;;;38.73;23.86
51239;BME280;38154;47.548;18.828;2023-05-23T07:55:06;98456.94;;;37.88;24.91
51239;BME280;38154;47.548;18.828;2023-05-23T07:57:32;98466.53;;;37.76;26.41
51239;BME280;38154;47.548;18.828;2023-05-23T07:59:58;98462.06;;;38.52;24.71
51239;BME280;38154;47.548;18.828;2023-05-23T08:02:24;98456.22;;;38.40;25.63
51239;BME280;38154;47.548;18.828;2023-05-23T08:04:50;98463.59;;;38.09;26.85
51239;BME280;38154;47.548;18.828;2023-05-23T08:07:16;98467.22;;;38.01;25.37
51239;BME280;38154;47.548;18.828;2023-05-23T08:09:42;98467.16;;;37.07;27.75
51239;BME280;38154;47.548;18.828;2023-05-23T08:12:08;98466.91;;;37.96;26.26
51239;BME280;38154;47.548;18.828;2023-05-23T08:14:34;98462.28;;;38.04;26.43
51239;BME280;38154;47.548;18.828;2023-05-23T08:17:01;98471.03;;;37.92;26.00
51239;BME280;38154;47.548;18.828;2023-05-23T08:19:27;98466.44;;;37.92;26.32
51239;BME280;38154;47.548;18.828;2023-05-23T08:21:53;98459.97;;;38.54;25.34
51239;BME280;38154;47.548;18.828;2023-05-23T08:24:20;98469.16;;;37.92;25.60
51239;BME280;38154;47.548;18.828;2023-05-23T08:26:46;98455.19;;;38.41;25.67
51239;BME280;38154;47.548;18.828;2023-05-23T08:29:13;98456.31;;;38.01;26.38
51239;BME280;38154;47.548;18.828;2023-05-23T08:31:39;98463.28;;;37.01;26.74
51239;BME280;38154;47.548;18.828;2023-05-23T08:34:06;98455.59;;;36.49;27.87
51239;BME280;38154;47.548;18.828;2023-05-23T08:36:32;98453.19;;;36.21;27.66
51239;BME280;38154;47.548;18.828;2023-05-23T08:39:01;98454.22;;;36.36;26.93
51239;BME280;38154;47.548;18.828;2023-05-23T08:41:30;98450.66;;;36.28;28.03
51239;BME280;38154;47.548;18.828;2023-05-23T08:43:56;98448.09;;;35.77;28.04
51239;BME280;38154;47.548;18.828;2023-05-23T08:46:22;98457.25;;;36.58;28.03
51239;BME280;38154;47.548;18.828;2023-05-23T08:48:54;98449.59;;;36.62;26.67
51239;BME280;38154;47.548;18.828;2023-05-23T08:51:23;98465.16;;;37.48;25.12
51239;BME280;38154;47.548;18.828;2023-05-23T08:53:50;98458.72;;;36.93;26.51
51239;BME280;38154;47.548;18.828;2023-05-23T08:56:18;98461.50;;;37.64;25.18
51239;BME280;38154;47.548;18.828;2023-05-23T08:58:45;98459.84;;;37.55;24.79
51239;BME280;38154;47.548;18.828;2023-05-23T09:01:12;98460.06;;;37.06;25.60
51239;BME280;38154;47.548;18.828;2023-05-23T09:03:39;98464.88;;;37.75;24.26
51239;BME280;38154;47.548;18.828;2023-05-23T09:06:09;98461.72;;;38.32;25.09
51239;BME280;38154;47.548;18.828;2023-05-23T09:08:36;98464.31;;;38.02;24.77
51239;BME280;38154;47.548;18.828;2023-05-23T09:11:03;98465.41;;;37.93;24.55
51239;BME280;38154;47.548;18.828;2023-05-23T09:13:30;98464.75;;;37.68;24.98
51239;BME280;38154;47.548;18.828;2023-05-23T09:18:26;98469.22;;;37.84;23.62
51239;BME280;38154;47.548;18.828;2023-05-23T09:20:52;98460.87;;;38.09;24.94
51239;BME280;38154;47.548;18.828;2023-05-23T09:23:19;98462.50;;;37.72;24.44
51239;BME280;38154;47.548;18.828;2023-05-23T09:25:46;98458.03;;;37.47;26.37
51239;BME280;38154;47.548;18.828;2023-05-23T09:28:12;98459.63;;;37.34;25.45
51239;BME280;38154;47.548;18.828;2023-05-23T09:30:38;98454.63;;;37.45;26.32
51239;BME280;38154;47.548;18.828;2023-05-23T09:33:04;98454.06;;;36.38;27.20
51239;BME280;38154;47.548;18.828;2023-05-23T09:35:30;98447.41;;;36.16;27.56
51239;BME280;38154;47.548;18.828;2023-05-23T09:37:57;98449.88;;;35.60;27.61
51239;BME280;38154;47.548;18.828;2023-05-23T09:40:30;98450.81;;;36.10;26.92
51239;BME280;38154;47.548;18.828;2023-05-23T09:43:03;98448.53;;;35.72;28.15
51239;BME280;38154;47.548;18.828;2023-05-23T09:45:31;98452.69;;;36.09;27.62
51239;BME280;38154;47.548;18.828;2023-05-23T09:47:57;98449.44;;;36.55;28.05
51239;BME280;38154;47.548;18.828;2023-05-23T09:50:25;98448.28;;;36.41;27.01
51239;BME280;38154;47.548;18.828;2023-05-23T09:52:55;98451.50;;;36.36;27.95
51239;BME280;38154;47.548;18.828;2023-05-23T09:55:22;98450.97;;;36.74;27.13
51239;BME280;38154;47.548;18.828;2023-05-23T09:57:52;98448.13;;;36.43;26.73
51239;BME280;38154;47.548;18.828;2023-05-23T10:00:19;98439.97;;;35.85;26.86
51239;BME280;38154;47.548;18.828;2023-05-23T10:02:54;98439.37;;;34.80;28.52
51239;BME280;38154;47.548;18.828;2023-05-23T10:05:39;98436.53;;;35.83;27.79
51239;BME280;38154;47.548;18.828;2023-05-23T10:08:38;98439.06;;;34.83;29.47
51239;BME280;38154;47.548;18.828;2023-05-23T10:13:45;98429.28;;;35.83;28.23
51239;BME280;38154;47.548;18.828;2023-05-23T10:16:24;98429.63;;;35.97;26.08
51239;BME280;38154;47.548;18.828;2023-05-23T10:18:55;98425.53;;;33.94;30.60
51239;BME280;38154;47.548;18.828;2023-05-23T10:21:43;98415.50;;;31.60;34.00
51239;BME280;38154;47.548;18.828;2023-05-23T10:24:13;98409.66;;;32.04;33.78
51239;BME280;38154;47.548;18.828;2023-05-23T10:26:40;98415.56;;;33.03;32.97
51239;BME280;38154;47.548;18.828;2023-05-23T10:29:06;98404.06;;;34.19;32.11
51239;BME280;38154;47.548;18.828;2023-05-23T10:31:32;98417.03;;;35.79;28.38
51239;BME280;38154;47.548;18.828;2023-05-23T10:37:00;98415.66;;;35.67;27.96
51239;BME280;38154;47.548;18.828;2023-05-23T10:42:41;98416.00;;;34.26;30.84
51239;BME280;38154;47.548;18.828;2023-05-23T10:45:16;98404.69;;;32.28;32.55
51239;BME280;38154;47.548;18.828;2023-05-23T10:47:42;98401.94;;;30.90;35.12
51239;BME280;38154;47.548;18.828;2023-05-23T10:50:13;98395.81;;;30.05;37.40
51239;BME280;38154;47.548;18.828;2023-05-23T10:52:42;98390.34;;;30.59;37.35
51239;BME280;38154;47.548;18.828;2023-05-23T10:55:15;98399.97;;;32.40;35.28
51239;BME280;38154;47.548;18.828;2023-05-23T10:57:43;98399.87;;;33.35;33.21
51239;BME280;38154;47.548;18.828;2023-05-23T11:00:15;98399.22;;;33.51;32.99
51239;BME280;38154;47.548;18.828;2023-05-23T11:02:54;98392.53;;;34.17;32.26
51239;BME280;38154;47.548;18.828;2023-05-23T11:05:27;98385.84;;;35.16;30.65
51239;BME280;38154;47.548;18.828;2023-05-23T11:08:12;98386.81;;;35.07;30.68
51239;BME280;38154;47.548;18.828;2023-05-23T11:11:13;98389.50;;;34.99;29.50
51239;BME280;38154;47.548;18.828;2023-05-23T11:18:49;98373.25;;;34.64;29.13
51239;BME280;38154;47.548;18.828;2023-05-23T11:21:15;98370.84;;;35.38;27.93
51239;BME280;38154;47.548;18.828;2023-05-23T11:23:42;98373.94;;;34.66;28.71
51239;BME280;38154;47.548;18.828;2023-05-23T11:26:30;98365.41;;;34.53;28.84
51239;BME280;38154;47.548;18.828;2023-05-23T11:28:57;98360.38;;;33.88;29.06
51239;BME280;38154;47.548;18.828;2023-05-23T11:31:23;98361.66;;;33.30;30.60
51239;BME280;38154;47.548;18.828;2023-05-23T11:33:50;98355.03;;;32.02;32.87
51239;BME280;38154;47.548;18.828;2023-05-23T11:36:16;98350.16;;;31.07;34.80
51239;BME280;38154;47.548;18.828;2023-05-23T11:38:42;98354.19;;;31.42;33.47
51239;BME280;38154;47.548;18.828;2023-05-23T11:41:08;98344.38;;;31.41;33.19
51239;BME280;38154;47.548;18.828;2023-05-23T11:43:34;98332.91;;;31.39;31.76
51239;BME280;38154;47.548;18.828;2023-05-23T11:46:07;98341.00;;;31.69;32.44
51239;BME280;38154;47.548;18.828;2023-05-23T11:48:33;98332.44;;;32.22;30.53
51239;BME280;38154;47.548;18.828;2023-05-23T11:51:00;98325.78;;;32.54;31.38
51239;BME280;38154;47.548;18.828;2023-05-23T11:53:27;98326.09;;;32.41;30.91
51239;BME280;38154;47.548;18.828;2023-05-23T11:55:55;98325.53;;;31.80;30.67
51239;BME280;38154;47.548;18.828;2023-05-23T11:58:28;98322.72;;;31.53;30.46
51239;BME280;38154;47.548;18.828;2023-05-23T12:01:02;98319.84;;;31.25;31.92
51239;BME280;38154;47.548;18.828;2023-05-23T12:03:29;98312.16;;;31.01;31.54
51239;BME280;38154;47.548;18.828;2023-05-23T12:05:56;98315.47;;;30.74;32.24
51239;BME280;38154;47.548;18.828;2023-05-23T12:08:23;98310.53;;;30.79;32.18
51239;BME280;38154;47.548;18.828;2023-05-23T12:10:56;98300.25;;;31.03;31.85
51239;BME280;38154;47.548;18.828;2023-05-23T12:13:24;98300.13;;;31.24;31.03
51239;BME280;38154;47.548;18.828;2023-05-23T12:15:54;98294.56;;;30.97;32.79
51239;BME280;38154;47.548;18.828;2023-05-23T12:18:21;98291.69;;;30.38;33.70
51239;BME280;38154;47.548;18.828;2023-05-23T12:20:50;98291.09;;;30.75;33.25
51239;BME280;38154;47.548;18.828;2023-05-23T12:23:18;98286.94;;;31.21;32.53
51239;BME280;38154;47.548;18.828;2023-05-23T12:25:48;98279.28;;;30.57;34.63
51239;BME280;38154;47.548;18.828;2023-05-23T12:28:14;98283.38;;;30.20;35.93
51239;BME280;38154;47.548;18.828;2023-05-23T12:30:41;98287.94;;;30.50;34.65
51239;BME280;38154;47.548;18.828;2023-05-23T12:33:08;98278.09;;;30.40;34.80
51239;BME280;38154;47.548;18.828;2023-05-23T12:35:34;98273.16;;;30.14;36.30
51239;BME280;38154;47.548;18.828;2023-05-23T12:37:59;98260.28;;;30.18;36.61
51239;BME280;38154;47.548;18.828;2023-05-23T12:40:27;98270.34;;;29.31;37.05
51239;BME280;38154;47.548;18.828;2023-05-23T12:42:55;98258.63;;;28.89;38.30
51239;BME280;38154;47.548;18.828;2023-05-23T12:45:31;98265.16;;;29.39;38.99
51239;BME280;38154;47.548;18.828;2023-05-23T12:47:59;98266.03;;;29.40;37.89
51239;BME280;38154;47.548;18.828;2023-05-23T12:50:25;98260.63;;;29.19;38.19
51239;BME280;38154;47.548;18.828;2023-05-23T12:52:51;98260.31;;;29.33;36.98
51239;BME280;38154;47.548;18.828;2023-05-23T12:55:17;98252.72;;;29.38;36.67
51239;BME280;38154;47.548;18.828;2023-05-23T12:57:43;98243.09;;;29.36;36.86
51239;BME280;38154;47.548;18.828;2023-05-23T13:00:10;98244.66;;;29.59;38.04
51239;BME280;38154;47.548;18.828;2023-05-23T13:02:36;98244.94;;;29.56;37.01
51239;BME280;38154;47.548;18.828;2023-05-23T13:05:03;98236.75;;;29.37;34.10
51239;BME280;38154;47.548;18.828;2023-05-23T13:07:29;98235.94;;;29.25;34.40
51239;BME280;38154;47.548;18.828;2023-05-23T13:09:55;98235.09;;;29.46;34.91
51239;BME280;38154;47.548;18.828;2023-05-23T13:12:21;98232.09;;;29.39;33.24